Pleak, Texas
Current Conditions -  °F | °C
As of 9:53 PM on Friday 28 Nov 2014 (Local Time) from KSGR Reporting Station
Clear Clear  
Wind Chill: 57°   Ceiling: Unl
Heat Index: 57°   Visibility: 10mi
Dew Point: 54°   Wind: 6mph
Humidity: 89%   Direction: 170°S
Pressure: 30.15"   Gusts: NA
Location:  29.4892°N, 95.6914°W
Report Text: KSGR 290353Z AUTO 17005KT 10SM CLR 14/12 A3015 RMK AO2 SLP210 T01390122
Loading
Personal Weather Stations






























Interactive Weather Map New forecast layout! Learn more

10-Day Weather Forecast

Advertisements
Track Severe Weather on mobile